Atascosa, Texas
Current Conditions -  °F | °C
As of 1:35 AM on Monday 22 Dec 2014 (Local Time) from KCVB Reporting Station
Light Rain Light Rain  
Wind Chill: 13°   Ceiling: 300
Heat Index: 13°   Visibility: 1.5mi
Dew Point: 13°   Wind: 0mph
Humidity: 99%   Direction: NA
Pressure: 29.85"   Gusts: NA
Location:  29.28°N, 98.74°W
Report Text: KCVB 220735Z AUTO 00000KT 1 1/2SM -RA OVC003 13/13 A2985 RMK AO2 T01270125
Loading
Personal Weather Stations






























Interactive Weather Map New forecast layout! Learn more

10-Day Weather Forecast

Advertisements
Track Severe Weather on mobile